createdAt,value
2022-08-03T00:01:37.243Z,100038.78
2022-08-03T00:04:40.099Z,100040.87
2022-08-03T00:07:42.700Z,100051.00
2022-08-03T00:10:45.879Z,100036.72
2022-08-03T00:13:48.831Z,100042.25
2022-08-03T00:16:51.708Z,100044.47
2022-08-03T00:19:54.378Z,100049.34
2022-08-03T00:22:57.251Z,100040.87
2022-08-03T00:25:59.934Z,100039.31
2022-08-03T00:29:02.763Z,100049.63
2022-08-03T00:32:05.622Z,100044.31
2022-08-03T00:35:11.339Z,100048.75
2022-08-03T00:38:20.965Z,100052.66
2022-08-03T00:41:23.875Z,100055.84
2022-08-03T00:44:26.435Z,100049.41
2022-08-03T00:47:29.407Z,100052.31
2022-08-03T00:50:37.392Z,100052.38
2022-08-03T00:53:40.306Z,100051.63
2022-08-03T00:56:59.249Z,100061.53
2022-08-03T01:00:03.604Z,100070.38
2022-08-03T01:03:07.969Z,100069.19
2022-08-03T01:06:18.139Z,100074.84
2022-08-03T01:09:32.657Z,100074.47
2022-08-03T01:12:39.315Z,100076.12
2022-08-03T01:15:54.940Z,100080.94
2022-08-03T01:19:03.643Z,100079.69
2022-08-03T01:22:43.938Z,100087.56
2022-08-03T01:26:00.333Z,100085.16
2022-08-03T01:29:41.496Z,100087.53
2022-08-03T01:33:00.705Z,100078.50
2022-08-03T01:36:05.954Z,100088.28
2022-08-03T01:39:09.592Z,100085.16
2022-08-03T01:42:14.383Z,100085.03
2022-08-03T01:45:18.865Z,100080.72
2022-08-03T01:48:22.113Z,100086.19
2022-08-03T01:51:56.036Z,100085.34
2022-08-03T01:54:51.586Z,100074.59
2022-08-03T01:58:05.518Z,100077.72
2022-08-03T02:01:10.486Z,100073.38
2022-08-03T02:04:15.536Z,100078.63
2022-08-03T02:07:19.276Z,100077.16
2022-08-03T02:10:35.252Z,100069.75
2022-08-03T02:13:39.499Z,100072.03
2022-08-03T02:16:43.924Z,100077.03
2022-08-03T02:19:47.574Z,100081.00
2022-08-03T02:22:50.830Z,100078.72
2022-08-03T02:26:01.874Z,100080.41
2022-08-03T02:29:15.547Z,100080.84
2022-08-03T02:32:21.960Z,100069.94
2022-08-03T02:35:27.398Z,100084.44
2022-08-03T02:38:36.565Z,100074.06
2022-08-03T02:41:50.986Z,100083.59
2022-08-03T02:44:55.924Z,100075.94
2022-08-03T02:48:01.363Z,100076.19
2022-08-03T02:51:04.932Z,100075.53
2022-08-03T02:54:09.491Z,100077.84
2022-08-03T02:57:12.800Z,100084.87
2022-08-03T03:00:27.227Z,100079.28
2022-08-03T03:03:33.868Z,100079.09
2022-08-03T03:06:45.196Z,100088.84
2022-08-03T03:09:51.524Z,100075.81
2022-08-03T03:12:57.112Z,100080.78
2022-08-03T03:16:04.923Z,100084.94
2022-08-03T03:19:09.481Z,100085.13
2022-08-03T03:22:13.364Z,100085.97
2022-08-03T03:25:16.869Z,100087.59
2022-08-03T03:28:19.659Z,100085.56
2022-08-03T03:31:22.716Z,100089.91
2022-08-03T03:34:25.407Z,100090.31
2022-08-03T03:37:28.427Z,100095.28
2022-08-03T03:40:31.829Z,100089.91
2022-08-03T03:43:34.926Z,100090.31
2022-08-03T03:46:39.168Z,100085.34
2022-08-03T03:49:42.936Z,100084.31
2022-08-03T03:52:45.455Z,100087.44
2022-08-03T03:55:59.576Z,100095.31
2022-08-03T03:59:04.908Z,100095.91
2022-08-03T04:02:08.936Z,100095.72
2022-08-03T04:05:30.929Z,100094.50
2022-08-03T04:08:52.115Z,100100.28
2022-08-03T04:11:59.070Z,100096.97
2022-08-03T04:15:02.861Z,100098.22
2022-08-03T04:18:08.127Z,100109.62
2022-08-03T04:21:13.248Z,100101.53
2022-08-03T04:24:16.396Z,100113.75
2022-08-03T04:27:22.992Z,100114.78
2022-08-03T04:30:28.111Z,100120.59
2022-08-03T04:33:32.973Z,100113.94
2022-08-03T04:36:43.719Z,100120.59
2022-08-03T04:39:48.785Z,100119.13
2022-08-03T04:42:54.053Z,100121.22
2022-08-03T04:45:57.094Z,100121.81
2022-08-03T04:49:00.182Z,100124.28
2022-08-03T04:52:03.124Z,100135.47
2022-08-03T04:55:06.582Z,100129.63
2022-08-03T04:58:09.855Z,100144.09
2022-08-03T05:01:12.790Z,100144.94
2022-08-03T05:04:15.483Z,100147.78
2022-08-03T05:07:24.109Z,100143.16
2022-08-03T05:10:28.002Z,100145.84
2022-08-03T05:13:31.000Z,100149.50
2022-08-03T05:16:33.561Z,100154.38
2022-08-03T05:19:36.445Z,100150.25
2022-08-03T05:22:39.032Z,100164.56
2022-08-03T05:25:49.575Z,100160.97
2022-08-03T05:28:53.526Z,100158.87
2022-08-03T05:31:56.499Z,100168.94
2022-08-03T05:34:59.648Z,100164.34
2022-08-03T05:38:24.049Z,100175.41
2022-08-03T05:41:36.929Z,100175.38
2022-08-03T05:44:40.384Z,100169.19
2022-08-03T05:47:44.343Z,100176.97
2022-08-03T05:50:47.334Z,100176.78
2022-08-03T05:53:50.064Z,100174.66
2022-08-03T05:56:52.875Z,100178.28
2022-08-03T05:59:58.550Z,100183.56
2022-08-03T06:03:02.442Z,100182.34
2022-08-03T06:06:05.373Z,100186.03
2022-08-03T06:09:08.033Z,100188.72
2022-08-03T06:12:14.097Z,100185.31
2022-08-03T06:15:17.260Z,100193.97
2022-08-03T06:18:20.303Z,100192.09
2022-08-03T06:21:22.866Z,100201.53
2022-08-03T06:24:25.842Z,100195.69
2022-08-03T06:27:36.625Z,100192.97
2022-08-03T06:30:41.715Z,100199.56
2022-08-03T06:34:30.781Z,100193.16
2022-08-03T06:37:07.106Z,100188.88
2022-08-03T06:40:11.431Z,100195.41
2022-08-03T06:43:16.939Z,100198.66
2022-08-03T06:46:19.869Z,100201.81
2022-08-03T06:49:22.860Z,100196.03
2022-08-03T06:52:37.693Z,100199.66
2022-08-03T06:55:42.481Z,100202.06
2022-08-03T06:58:47.015Z,100206.37
2022-08-03T07:01:50.137Z,100212.06
2022-08-03T07:04:52.670Z,100204.47
2022-08-03T07:07:57.312Z,100210.50
2022-08-03T07:10:59.931Z,100208.44
2022-08-03T07:14:02.799Z,100213.03
2022-08-03T07:17:12.023Z,100209.72
2022-08-03T07:20:17.437Z,100201.19
2022-08-03T07:23:19.980Z,100215.00
2022-08-03T07:26:22.824Z,100218.47
2022-08-03T07:29:25.359Z,100218.47
2022-08-03T07:32:31.116Z,100224.47
2022-08-03T07:35:33.721Z,100203.56
2022-08-03T07:38:39.392Z,100212.12
2022-08-03T07:41:41.965Z,100211.69
2022-08-03T07:44:45.518Z,100201.84
2022-08-03T07:47:53.494Z,100207.50
2022-08-03T07:50:57.002Z,100206.78
2022-08-03T07:54:00.923Z,100201.59
2022-08-03T07:57:04.162Z,100202.78
2022-08-03T08:00:13.826Z,100202.41
2022-08-03T08:03:17.585Z,100202.72
2022-08-03T08:06:20.295Z,100198.50
2022-08-03T08:09:23.556Z,100203.84
2022-08-03T08:12:26.074Z,100202.44
2022-08-03T08:15:29.332Z,100193.53
2022-08-03T08:18:32.124Z,100204.19
2022-08-03T08:21:54.062Z,100208.31
2022-08-03T08:25:04.482Z,100199.63
2022-08-03T08:28:22.252Z,100199.69
2022-08-03T08:31:30.091Z,100197.75
2022-08-03T08:34:32.927Z,100193.66
2022-08-03T08:37:35.920Z,100201.59
2022-08-03T08:40:40.499Z,100195.31
2022-08-03T08:43:43.490Z,100201.06
2022-08-03T08:46:47.164Z,100198.84
2022-08-03T08:50:08.842Z,100191.97
2022-08-03T08:53:17.666Z,100195.78
2022-08-03T08:56:25.563Z,100194.66
2022-08-03T08:59:47.922Z,100184.22
2022-08-03T09:02:51.271Z,100183.03
2022-08-03T09:05:56.173Z,100187.94
2022-08-03T09:08:59.150Z,100186.50
2022-08-03T09:12:27.201Z,100180.63
2022-08-03T09:15:33.353Z,100169.88
2022-08-03T09:18:36.312Z,100176.84
2022-08-03T09:21:38.873Z,100183.78
2022-08-03T09:25:21.555Z,100182.31
2022-08-03T09:28:58.848Z,100171.44
2022-08-03T09:31:46.313Z,100169.56
2022-08-03T09:34:50.273Z,100169.50
2022-08-03T09:38:14.023Z,100166.16
2022-08-03T09:41:20.019Z,100167.97
2022-08-03T09:44:37.349Z,100162.28
2022-08-03T09:47:44.949Z,100159.41
2022-08-03T09:51:13.180Z,100153.41
2022-08-03T09:54:30.419Z,100151.47
2022-08-03T09:57:33.318Z,100155.75
2022-08-03T10:00:52.696Z,100151.12
2022-08-03T10:04:02.984Z,100147.38
2022-08-03T10:07:11.453Z,100141.81
2022-08-03T10:10:29.013Z,100139.28
2022-08-03T10:13:34.281Z,100139.91
2022-08-03T10:16:40.457Z,100134.31
2022-08-03T10:19:43.095Z,100123.56
2022-08-03T10:22:47.268Z,100129.69
2022-08-03T10:25:55.052Z,100125.94
2022-08-03T10:29:00.076Z,100124.06
2022-08-03T10:32:05.634Z,100126.28
2022-08-03T10:35:19.012Z,100116.62
2022-08-03T10:38:30.628Z,100123.41
2022-08-03T10:41:38.406Z,100120.44
2022-08-03T10:44:41.390Z,100118.91
2022-08-03T10:47:44.465Z,100113.38
2022-08-03T10:50:49.295Z,100119.16
2022-08-03T10:53:55.304Z,100114.72
2022-08-03T10:57:17.032Z,100105.72
2022-08-03T11:00:25.937Z,100105.78
2022-08-03T11:03:32.973Z,100106.47
2022-08-03T11:06:37.632Z,100115.50
2022-08-03T11:09:47.621Z,100102.00
2022-08-03T11:12:50.679Z,100097.22
2022-08-03T11:16:01.593Z,100086.72
2022-08-03T11:19:10.599Z,100081.97
2022-08-03T11:22:13.970Z,100078.22
2022-08-03T11:25:53.630Z,100074.00
2022-08-03T11:28:40.446Z,100075.78
2022-08-03T11:31:51.701Z,100080.00
2022-08-03T11:35:08.583Z,100071.16
2022-08-03T11:38:12.391Z,100068.91
2022-08-03T11:41:33.089Z,100071.44
2022-08-03T11:44:47.626Z,100065.78
2022-08-03T11:47:54.527Z,100055.69
2022-08-03T11:50:57.368Z,100059.84
2022-08-03T11:54:01.808Z,100049.06
2022-08-03T11:57:04.779Z,100044.72
2022-08-03T12:00:35.566Z,100046.75
2022-08-03T12:03:38.492Z,100040.22
2022-08-03T12:06:56.369Z,100043.22
2022-08-03T12:10:26.264Z,100040.87
2022-08-03T12:14:33.127Z,100036.72
2022-08-03T12:17:00.514Z,100031.19
2022-08-03T12:20:04.922Z,100029.84
2022-08-03T12:23:09.660Z,100025.66
2022-08-03T12:26:12.261Z,100019.13
2022-08-03T12:29:19.133Z,100023.78
2022-08-03T12:32:21.822Z,100025.72
2022-08-03T12:35:25.988Z,100028.03
2022-08-03T12:38:30.179Z,100017.38
2022-08-03T12:41:37.650Z,100010.91
2022-08-03T12:44:41.343Z,100003.56
2022-08-03T12:48:01.164Z,100006.84
2022-08-03T12:51:10.941Z,100009.09
2022-08-03T12:54:24.543Z,100007.41
2022-08-03T12:57:41.283Z,100001.31
2022-08-03T13:00:55.628Z,100006.25
2022-08-03T13:03:58.187Z,99994.19
2022-08-03T13:07:05.245Z,99997.50
2022-08-03T13:10:10.233Z,99992.41
2022-08-03T13:13:13.375Z,99995.09
2022-08-03T13:16:19.374Z,99986.88
2022-08-03T13:19:22.481Z,99982.50
2022-08-03T13:22:30.228Z,99983.31
2022-08-03T13:25:33.061Z,99973.94
2022-08-03T13:28:35.998Z,99980.22
2022-08-03T13:31:38.971Z,99975.31
2022-08-03T13:34:53.612Z,99967.25
2022-08-03T13:37:56.611Z,99974.75
2022-08-03T13:41:00.411Z,99973.88
2022-08-03T13:44:28.854Z,99966.34
2022-08-03T13:47:30.659Z,99969.22
2022-08-03T13:50:33.920Z,99970.50
2022-08-03T13:53:36.435Z,99963.47
2022-08-03T13:56:39.433Z,99952.03
2022-08-03T13:59:42.054Z,99951.34
2022-08-03T14:02:44.994Z,99945.81
2022-08-03T14:05:48.265Z,99943.81
2022-08-03T14:08:51.555Z,99936.84
2022-08-03T14:12:07.802Z,99940.72
2022-08-03T14:15:13.069Z,99941.69
2022-08-03T14:18:29.048Z,99933.91
2022-08-03T14:21:36.245Z,99930.06
2022-08-03T14:24:39.075Z,99930.69
2022-08-03T14:27:41.703Z,99927.81
2022-08-03T14:30:45.366Z,99919.50
2022-08-03T14:33:47.905Z,99919.91
2022-08-03T14:36:50.697Z,99910.66
2022-08-03T14:40:01.137Z,99906.88
2022-08-03T14:43:04.692Z,99908.87
2022-08-03T14:46:07.210Z,99913.91
2022-08-03T14:50:38.230Z,99908.56
2022-08-03T14:52:32.627Z,99907.25
2022-08-03T14:55:38.849Z,99900.88
2022-08-03T14:58:52.891Z,99900.22
2022-08-03T15:02:06.018Z,99895.72
2022-08-03T15:05:12.759Z,99899.09
2022-08-03T15:08:15.930Z,99897.97
2022-08-03T15:11:18.439Z,99891.31
2022-08-03T15:14:22.182Z,99897.41
2022-08-03T15:17:30.886Z,99892.22
2022-08-03T15:20:44.878Z,99900.19
2022-08-03T15:23:48.317Z,99889.63
2022-08-03T15:26:52.415Z,99888.16
2022-08-03T15:30:05.962Z,99886.84
2022-08-03T15:33:13.090Z,99890.56
2022-08-03T15:36:16.328Z,99889.13
2022-08-03T15:39:19.297Z,99889.25
2022-08-03T15:42:21.968Z,99896.59
2022-08-03T15:45:28.565Z,99887.28
2022-08-03T15:48:39.713Z,99890.66
2022-08-03T15:51:42.693Z,99893.87
2022-08-03T15:54:45.253Z,99887.66
2022-08-03T15:59:03.614Z,99886.87
2022-08-03T16:01:15.281Z,99886.13
2022-08-03T16:04:20.644Z,99883.56
2022-08-03T16:08:03.410Z,99883.91
2022-08-03T16:11:06.797Z,99880.22
2022-08-03T16:14:30.895Z,99876.34
2022-08-03T16:17:33.015Z,99877.88
2022-08-03T16:20:36.451Z,99873.50
2022-08-03T16:23:39.823Z,99873.88
2022-08-03T16:26:46.184Z,99867.25
2022-08-03T16:29:49.293Z,99876.12
2022-08-03T16:32:51.880Z,99880.94
2022-08-03T16:35:55.052Z,99877.47
2022-08-03T16:38:57.843Z,99868.81
2022-08-03T16:42:01.875Z,99868.09
2022-08-03T16:45:06.509Z,99870.53
2022-08-03T16:48:10.319Z,99868.09
2022-08-03T16:51:13.114Z,99871.22
2022-08-03T16:54:16.041Z,99865.31
2022-08-03T16:57:56.220Z,99868.22
2022-08-03T17:00:51.001Z,99869.50
2022-08-03T17:04:04.861Z,99865.19
2022-08-03T17:07:21.592Z,99878.81
2022-08-03T17:10:31.450Z,99873.09
2022-08-03T17:13:39.779Z,99877.78
2022-08-03T17:16:52.939Z,99880.66
2022-08-03T17:19:58.520Z,99888.56
2022-08-03T17:23:19.200Z,99888.75
2022-08-03T17:26:39.865Z,99895.66
2022-08-03T17:29:52.987Z,99892.91
2022-08-03T17:32:57.509Z,99889.28
2022-08-03T17:36:00.657Z,99894.16
2022-08-03T17:39:05.365Z,99894.34
2022-08-03T17:42:31.026Z,99899.34
2022-08-03T17:45:42.176Z,99902.81
2022-08-03T17:48:56.967Z,99905.31
2022-08-03T17:52:03.587Z,99912.75
2022-08-03T17:55:57.092Z,99909.00
2022-08-03T17:58:54.970Z,99906.91
2022-08-03T18:02:51.488Z,99905.91
2022-08-03T18:06:11.371Z,99905.28
2022-08-03T18:10:04.424Z,99905.69
2022-08-03T18:12:53.559Z,99908.81
2022-08-03T18:16:04.528Z,99916.69
2022-08-03T18:19:13.437Z,99909.31
2022-08-03T18:22:20.706Z,99917.34
2022-08-03T18:25:25.583Z,99921.22
2022-08-03T18:28:52.009Z,99926.25
2022-08-03T18:32:03.545Z,99928.25
2022-08-03T18:35:07.649Z,99931.31
2022-08-03T18:38:18.936Z,99933.03
2022-08-03T18:41:32.232Z,99944.28
2022-08-03T18:44:53.027Z,99945.44
2022-08-03T18:47:57.988Z,99945.69
2022-08-03T18:51:28.808Z,99949.00
2022-08-03T18:55:12.545Z,99941.31
2022-08-03T18:58:35.398Z,99954.44
2022-08-03T19:02:00.707Z,99953.34
2022-08-03T19:05:09.946Z,99965.59
2022-08-03T19:08:20.636Z,99961.47
2022-08-03T19:12:26.140Z,99962.56
2022-08-03T19:15:12.808Z,99961.13
2022-08-03T19:18:21.619Z,99964.06
2022-08-03T19:21:24.554Z,99976.00
2022-08-03T19:24:29.350Z,99971.63
2022-08-03T19:27:33.091Z,99969.94
2022-08-03T19:30:39.789Z,99972.88
2022-08-03T19:33:57.603Z,99970.13
2022-08-03T19:37:01.127Z,99973.53
2022-08-03T19:40:05.627Z,99974.31
2022-08-03T19:43:21.948Z,99975.09
2022-08-03T19:46:30.997Z,99976.91
2022-08-03T19:50:05.116Z,99978.28
2022-08-03T19:53:04.145Z,99983.06
2022-08-03T19:56:07.092Z,99983.25
2022-08-03T19:59:13.228Z,99985.66
2022-08-03T20:02:17.543Z,99980.03
2022-08-03T20:05:30.379Z,99981.38
2022-08-03T20:08:51.461Z,99989.66
2022-08-03T20:11:55.459Z,99994.16
2022-08-03T20:14:58.451Z,99989.31
2022-08-03T20:18:01.318Z,99989.59
2022-08-03T20:21:14.925Z,99990.22
2022-08-03T20:24:26.992Z,99992.94
2022-08-03T20:27:34.783Z,99999.53
2022-08-03T20:30:58.118Z,99993.63
2022-08-03T20:34:02.614Z,99996.00
2022-08-03T20:37:05.477Z,99994.81
2022-08-03T20:40:12.423Z,99997.44
2022-08-03T20:43:16.401Z,100000.91
2022-08-03T20:46:31.329Z,99998.44
2022-08-03T20:49:45.924Z,99998.38
2022-08-03T20:52:49.913Z,99998.88
2022-08-03T20:56:02.114Z,100003.94
2022-08-03T20:59:07.080Z,100001.38
2022-08-03T21:02:29.483Z,100002.91
2022-08-03T21:05:48.339Z,100004.47
2022-08-03T21:09:00.145Z,99996.81
2022-08-03T21:12:08.279Z,99997.16
2022-08-03T21:16:01.091Z,100005.56
2022-08-03T21:18:38.025Z,100002.53
2022-08-03T21:21:42.939Z,100005.53
2022-08-03T21:24:47.885Z,100008.69
2022-08-03T21:27:52.788Z,100004.16
2022-08-03T21:30:57.447Z,100008.09
2022-08-03T21:34:03.317Z,100016.91
2022-08-03T21:37:05.889Z,100011.56
2022-08-03T21:40:12.202Z,100019.19
2022-08-03T21:43:14.945Z,100022.12
2022-08-03T21:46:19.829Z,100021.09
2022-08-03T21:50:04.515Z,100020.50
2022-08-03T21:52:48.477Z,100025.03
2022-08-03T21:55:58.648Z,100031.66
2022-08-03T21:59:06.159Z,100032.12
2022-08-03T22:02:16.448Z,100028.59
2022-08-03T22:05:29.066Z,100042.38
2022-08-03T22:08:47.520Z,100039.69
2022-08-03T22:11:54.133Z,100036.41
2022-08-03T22:15:01.172Z,100039.84
2022-08-03T22:18:05.309Z,100051.03
2022-08-03T22:21:10.232Z,100037.47
2022-08-03T22:24:13.584Z,100038.19
2022-08-03T22:27:33.352Z,100037.13
2022-08-03T22:30:37.444Z,100047.75
2022-08-03T22:33:40.434Z,100046.91
2022-08-03T22:36:43.321Z,100043.00
2022-08-03T22:39:46.051Z,100048.66
2022-08-03T22:42:50.643Z,100053.09
2022-08-03T22:46:07.648Z,100048.84
2022-08-03T22:49:15.498Z,100060.75
2022-08-03T22:52:18.209Z,100056.38
2022-08-03T22:55:25.070Z,100056.09
2022-08-03T22:58:27.855Z,100057.59
2022-08-03T23:01:33.197Z,100056.69
2022-08-03T23:04:38.884Z,100049.72
2022-08-03T23:07:42.894Z,100055.59
2022-08-03T23:10:47.307Z,100059.91
2022-08-03T23:13:54.133Z,100056.84
2022-08-03T23:17:01.037Z,100061.66
2022-08-03T23:20:07.276Z,100065.25
2022-08-03T23:23:11.303Z,100069.34
2022-08-03T23:26:17.361Z,100064.81
2022-08-03T23:29:20.512Z,100060.47
2022-08-03T23:32:25.721Z,100063.63
2022-08-03T23:36:18.857Z,100057.13
2022-08-03T23:39:11.372Z,100072.44
2022-08-03T23:42:18.822Z,100062.31
2022-08-03T23:45:22.234Z,100064.19
2022-08-03T23:48:26.042Z,100063.72
2022-08-03T23:51:41.203Z,100075.38
2022-08-03T23:55:08.528Z,100070.00
2022-08-03T23:58:26.626Z,100077.31
